sensor_id;sensor_type;location;lat;lon;timestamp;temperature;humidity
20045;DHT22;10183;47.808;9.476;2023-02-01T00:02:04;2.10;99.90
20045;DHT22;10183;47.808;9.476;2023-02-01T00:04:30;2.00;99.90
20045;DHT22;10183;47.808;9.476;2023-02-01T00:06:56;2.10;99.90
20045;DHT22;10183;47.808;9.476;2023-02-01T00:09:23;2.20;99.90
20045;DHT22;10183;47.808;9.476;2023-02-01T00:11:49;2.10;99.90
20045;DHT22;10183;47.808;9.476;2023-02-01T00:14:15;2.10;99.90
20045;DHT22;10183;47.808;9.476;2023-02-01T00:16:43;2.00;99.90
20045;DHT22;10183;47.808;9.476;2023-02-01T00:19:14;2.10;99.90
20045;DHT22;10183;47.808;9.476;2023-02-01T00:21:41;2.10;99.90
20045;DHT22;10183;47.808;9.476;2023-02-01T00:24:08;2.10;99.90
20045;DHT22;10183;47.808;9.476;2023-02-01T00:26:37;2.00;99.90
20045;DHT22;10183;47.808;9.476;2023-02-01T00:29:15;2.10;99.90
20045;DHT22;10183;47.808;9.476;2023-02-01T00:31:42;2.00;99.90
20045;DHT22;10183;47.808;9.476;2023-02-01T00:34:13;2.00;99.90
20045;DHT22;10183;47.808;9.476;2023-02-01T00:36:41;1.90;99.90
20045;DHT22;10183;47.808;9.476;2023-02-01T00:39:08;2.00;99.90
20045;DHT22;10183;47.808;9.476;2023-02-01T00:41:34;2.10;99.90
20045;DHT22;10183;47.808;9.476;2023-02-01T00:44:00;2.10;99.90
20045;DHT22;10183;47.808;9.476;2023-02-01T00:46:27;2.10;99.90
20045;DHT22;10183;47.808;9.476;2023-02-01T00:48:54;2.20;99.90
20045;DHT22;10183;47.808;9.476;2023-02-01T00:51:22;2.20;99.90
20045;DHT22;10183;47.808;9.476;2023-02-01T00:53:49;2.10;99.90
20045;DHT22;10183;47.808;9.476;2023-02-01T00:56:15;2.10;99.90
20045;DHT22;10183;47.808;9.476;2023-02-01T00:58:42;2.20;99.90
20045;DHT22;10183;47.808;9.476;2023-02-01T01:01:16;2.20;99.90
20045;DHT22;10183;47.808;9.476;2023-02-01T01:03:49;2.20;99.90
20045;DHT22;10183;47.808;9.476;2023-02-01T01:06:19;2.20;99.90
20045;DHT22;10183;47.808;9.476;2023-02-01T01:08:46;2.20;99.90
20045;DHT22;10183;47.808;9.476;2023-02-01T01:11:16;2.20;99.90
20045;DHT22;10183;47.808;9.476;2023-02-01T01:13:42;2.20;99.90
20045;DHT22;10183;47.808;9.476;2023-02-01T01:16:10;2.20;99.90
20045;DHT22;10183;47.808;9.476;2023-02-01T01:18:37;2.30;99.90
20045;DHT22;10183;47.808;9.476;2023-02-01T01:21:07;2.30;99.90
20045;DHT22;10183;47.808;9.476;2023-02-01T01:23:34;2.20;99.90
20045;DHT22;10183;47.808;9.476;2023-02-01T01:26:05;2.20;99.90
20045;DHT22;10183;47.808;9.476;2023-02-01T01:28:45;2.30;99.90
20045;DHT22;10183;47.808;9.476;2023-02-01T01:31:13;2.30;99.90
20045;DHT22;10183;47.808;9.476;2023-02-01T01:33:40;2.30;99.90
20045;DHT22;10183;47.808;9.476;2023-02-01T01:36:08;2.30;99.90
20045;DHT22;10183;47.808;9.476;2023-02-01T01:38:41;2.30;99.90
20045;DHT22;10183;47.808;9.476;2023-02-01T01:41:09;2.30;99.90
20045;DHT22;10183;47.808;9.476;2023-02-01T01:46:24;2.20;99.90
20045;DHT22;10183;47.808;9.476;2023-02-01T01:49:05;2.20;99.90
20045;DHT22;10183;47.808;9.476;2023-02-01T01:51:40;2.20;99.90
20045;DHT22;10183;47.808;9.476;2023-02-01T01:54:10;2.20;99.90
20045;DHT22;10183;47.808;9.476;2023-02-01T01:56:38;2.20;99.90
20045;DHT22;10183;47.808;9.476;2023-02-01T01:59:06;2.20;99.90
20045;DHT22;10183;47.808;9.476;2023-02-01T02:01:32;2.10;99.90
20045;DHT22;10183;47.808;9.476;2023-02-01T02:03:59;2.00;99.90
20045;DHT22;10183;47.808;9.476;2023-02-01T02:06:59;2.20;99.90
20045;DHT22;10183;47.808;9.476;2023-02-01T02:09:26;2.20;99.90
20045;DHT22;10183;47.808;9.476;2023-02-01T02:11:53;2.20;99.90
20045;DHT22;10183;47.808;9.476;2023-02-01T02:14:21;2.10;99.90
20045;DHT22;10183;47.808;9.476;2023-02-01T02:31:31;2.20;99.90
20045;DHT22;10183;47.808;9.476;2023-02-01T02:34:10;2.20;99.90
20045;DHT22;10183;47.808;9.476;2023-02-01T02:37:07;2.10;99.90
20045;DHT22;10183;47.808;9.476;2023-02-01T02:45:29;2.00;99.90
20045;DHT22;10183;47.808;9.476;2023-02-01T02:51:04;2.10;99.90
20045;DHT22;10183;47.808;9.476;2023-02-01T02:54:06;2.00;99.90
20045;DHT22;10183;47.808;9.476;2023-02-01T02:56:53;2.00;99.90
20045;DHT22;10183;47.808;9.476;2023-02-01T02:59:41;2.00;99.90
20045;DHT22;10183;47.808;9.476;2023-02-01T03:02:27;1.90;99.90
20045;DHT22;10183;47.808;9.476;2023-02-01T03:05:13;2.00;99.90
20045;DHT22;10183;47.808;9.476;2023-02-01T03:10:28;2.00;99.90
20045;DHT22;10183;47.808;9.476;2023-02-01T03:13:08;2.00;99.90
20045;DHT22;10183;47.808;9.476;2023-02-01T03:18:27;2.00;99.90
20045;DHT22;10183;47.808;9.476;2023-02-01T03:20:55;2.00;99.90
20045;DHT22;10183;47.808;9.476;2023-02-01T03:23:28;1.80;99.90
20045;DHT22;10183;47.808;9.476;2023-02-01T03:25:57;1.90;99.90
20045;DHT22;10183;47.808;9.476;2023-02-01T03:28:25;1.80;99.90
20045;DHT22;10183;47.808;9.476;2023-02-01T03:30:53;2.00;99.90
20045;DHT22;10183;47.808;9.476;2023-02-01T03:33:21;1.90;99.90
20045;DHT22;10183;47.808;9.476;2023-02-01T03:41:43;2.00;99.90
20045;DHT22;10183;47.808;9.476;2023-02-01T03:44:16;2.00;99.90
20045;DHT22;10183;47.808;9.476;2023-02-01T03:46:53;2.00;99.90
20045;DHT22;10183;47.808;9.476;2023-02-01T03:49:27;2.00;99.90
20045;DHT22;10183;47.808;9.476;2023-02-01T03:51:54;2.10;99.90
20045;DHT22;10183;47.808;9.476;2023-02-01T03:54:22;2.10;99.90
20045;DHT22;10183;47.808;9.476;2023-02-01T03:56:50;2.10;99.90
20045;DHT22;10183;47.808;9.476;2023-02-01T03:59:18;2.00;99.90
20045;DHT22;10183;47.808;9.476;2023-02-01T04:01:44;2.10;99.90
20045;DHT22;10183;47.808;9.476;2023-02-01T04:04:10;2.10;99.90
20045;DHT22;10183;47.808;9.476;2023-02-01T04:06:36;2.10;99.90
20045;DHT22;10183;47.808;9.476;2023-02-01T04:09:03;2.10;99.90
20045;DHT22;10183;47.808;9.476;2023-02-01T04:11:29;2.00;99.90
20045;DHT22;10183;47.808;9.476;2023-02-01T04:13:55;2.00;99.90
20045;DHT22;10183;47.808;9.476;2023-02-01T04:16:21;2.00;99.90
20045;DHT22;10183;47.808;9.476;2023-02-01T04:18:48;1.90;99.90
20045;DHT22;10183;47.808;9.476;2023-02-01T04:21:14;2.00;99.90
20045;DHT22;10183;47.808;9.476;2023-02-01T04:23:41;2.00;99.90
20045;DHT22;10183;47.808;9.476;2023-02-01T04:26:07;2.00;99.90
20045;DHT22;10183;47.808;9.476;2023-02-01T04:28:33;2.00;99.90
20045;DHT22;10183;47.808;9.476;2023-02-01T04:30:59;2.00;99.90
20045;DHT22;10183;47.808;9.476;2023-02-01T04:33:25;1.90;99.90
20045;DHT22;10183;47.808;9.476;2023-02-01T04:35:51;1.90;99.90
20045;DHT22;10183;47.808;9.476;2023-02-01T04:38:18;2.00;99.90
20045;DHT22;10183;47.808;9.476;2023-02-01T04:40:47;1.90;99.90
20045;DHT22;10183;47.808;9.476;2023-02-01T04:43:13;1.90;99.90
20045;DHT22;10183;47.808;9.476;2023-02-01T04:45:39;1.90;99.90
20045;DHT22;10183;47.808;9.476;2023-02-01T04:48:05;1.90;99.90
20045;DHT22;10183;47.808;9.476;2023-02-01T04:50:31;1.90;99.90
20045;DHT22;10183;47.808;9.476;2023-02-01T04:52:58;1.80;99.90
20045;DHT22;10183;47.808;9.476;2023-02-01T04:55:24;1.90;99.90
20045;DHT22;10183;47.808;9.476;2023-02-01T04:57:50;1.80;99.90
20045;DHT22;10183;47.808;9.476;2023-02-01T05:00:16;1.90;99.90
20045;DHT22;10183;47.808;9.476;2023-02-01T05:02:42;1.90;99.90
20045;DHT22;10183;47.808;9.476;2023-02-01T05:05:09;1.80;99.90
20045;DHT22;10183;47.808;9.476;2023-02-01T05:07:35;1.70;99.90
20045;DHT22;10183;47.808;9.476;2023-02-01T05:10:01;1.80;99.90
20045;DHT22;10183;47.808;9.476;2023-02-01T05:12:27;1.80;99.90
20045;DHT22;10183;47.808;9.476;2023-02-01T05:15:12;1.80;99.90
20045;DHT22;10183;47.808;9.476;2023-02-01T05:17:38;1.80;99.90
20045;DHT22;10183;47.808;9.476;2023-02-01T05:20:07;1.80;99.90
20045;DHT22;10183;47.808;9.476;2023-02-01T05:22:33;1.70;99.90
20045;DHT22;10183;47.808;9.476;2023-02-01T05:24:59;1.80;99.90
20045;DHT22;10183;47.808;9.476;2023-02-01T05:27:26;1.80;99.90
20045;DHT22;10183;47.808;9.476;2023-02-01T05:29:57;1.80;99.90
20045;DHT22;10183;47.808;9.476;2023-02-01T05:32:23;1.70;99.90
20045;DHT22;10183;47.808;9.476;2023-02-01T05:34:49;1.80;99.90
20045;DHT22;10183;47.808;9.476;2023-02-01T05:37:16;1.70;99.90
20045;DHT22;10183;47.808;9.476;2023-02-01T05:39:42;1.80;99.90
20045;DHT22;10183;47.808;9.476;2023-02-01T05:42:08;1.80;99.90
20045;DHT22;10183;47.808;9.476;2023-02-01T05:44:34;1.80;99.90
20045;DHT22;10183;47.808;9.476;2023-02-01T05:47:00;1.80;99.90
20045;DHT22;10183;47.808;9.476;2023-02-01T05:49:26;1.80;99.90
20045;DHT22;10183;47.808;9.476;2023-02-01T05:51:52;1.80;99.90
20045;DHT22;10183;47.808;9.476;2023-02-01T05:54:18;1.70;99.90
20045;DHT22;10183;47.808;9.476;2023-02-01T05:56:45;1.80;99.90
20045;DHT22;10183;47.808;9.476;2023-02-01T05:59:11;1.70;99.90
20045;DHT22;10183;47.808;9.476;2023-02-01T06:01:37;1.70;99.90
20045;DHT22;10183;47.808;9.476;2023-02-01T06:04:03;1.70;99.90
20045;DHT22;10183;47.808;9.476;2023-02-01T06:06:29;1.70;99.90
20045;DHT22;10183;47.808;9.476;2023-02-01T06:08:55;1.70;99.90
20045;DHT22;10183;47.808;9.476;2023-02-01T06:11:21;1.70;99.90
20045;DHT22;10183;47.808;9.476;2023-02-01T06:13:48;1.60;99.90
20045;DHT22;10183;47.808;9.476;2023-02-01T06:16:14;1.70;99.90
20045;DHT22;10183;47.808;9.476;2023-02-01T06:18:41;1.70;99.90
20045;DHT22;10183;47.808;9.476;2023-02-01T06:21:08;1.70;99.90
20045;DHT22;10183;47.808;9.476;2023-02-01T06:23:34;1.70;99.90
20045;DHT22;10183;47.808;9.476;2023-02-01T06:26:02;1.70;99.90
20045;DHT22;10183;47.808;9.476;2023-02-01T06:28:30;1.60;99.90
20045;DHT22;10183;47.808;9.476;2023-02-01T06:30:56;1.70;99.90
20045;DHT22;10183;47.808;9.476;2023-02-01T06:33:26;1.70;99.90
20045;DHT22;10183;47.808;9.476;2023-02-01T06:36:00;1.70;99.90
20045;DHT22;10183;47.808;9.476;2023-02-01T06:38:26;1.60;99.90
20045;DHT22;10183;47.808;9.476;2023-02-01T06:40:54;1.70;99.90
20045;DHT22;10183;47.808;9.476;2023-02-01T06:43:25;1.60;99.90
20045;DHT22;10183;47.808;9.476;2023-02-01T06:45:52;1.60;99.90
20045;DHT22;10183;47.808;9.476;2023-02-01T06:48:18;1.70;99.90
20045;DHT22;10183;47.808;9.476;2023-02-01T06:50:45;1.60;99.90
20045;DHT22;10183;47.808;9.476;2023-02-01T06:53:11;1.70;99.90
20045;DHT22;10183;47.808;9.476;2023-02-01T06:55:37;1.60;99.90
20045;DHT22;10183;47.808;9.476;2023-02-01T06:58:03;1.60;99.90
20045;DHT22;10183;47.808;9.476;2023-02-01T07:00:29;1.70;99.90
20045;DHT22;10183;47.808;9.476;2023-02-01T07:02:57;1.60;99.90
20045;DHT22;10183;47.808;9.476;2023-02-01T07:05:24;1.70;99.90
20045;DHT22;10183;47.808;9.476;2023-02-01T07:07:50;1.70;99.90
20045;DHT22;10183;47.808;9.476;2023-02-01T07:10:17;1.70;99.90
20045;DHT22;10183;47.808;9.476;2023-02-01T07:12:43;1.70;99.90
20045;DHT22;10183;47.808;9.476;2023-02-01T07:15:09;1.70;99.90
20045;DHT22;10183;47.808;9.476;2023-02-01T07:17:36;1.70;99.90
20045;DHT22;10183;47.808;9.476;2023-02-01T07:20:02;1.60;99.90
20045;DHT22;10183;47.808;9.476;2023-02-01T07:22:28;1.70;99.90
20045;DHT22;10183;47.808;9.476;2023-02-01T07:24:55;1.70;99.90
20045;DHT22;10183;47.808;9.476;2023-02-01T07:27:21;1.70;99.90
20045;DHT22;10183;47.808;9.476;2023-02-01T07:29:50;1.70;99.90
20045;DHT22;10183;47.808;9.476;2023-02-01T07:32:17;1.70;99.90
20045;DHT22;10183;47.808;9.476;2023-02-01T07:34:44;1.80;99.90
20045;DHT22;10183;47.808;9.476;2023-02-01T07:37:11;1.80;99.90
20045;DHT22;10183;47.808;9.476;2023-02-01T07:39:37;1.80;99.90
20045;DHT22;10183;47.808;9.476;2023-02-01T07:42:03;1.70;99.90
20045;DHT22;10183;47.808;9.476;2023-02-01T07:44:29;1.80;99.90
20045;DHT22;10183;47.808;9.476;2023-02-01T07:46:55;1.80;99.90
20045;DHT22;10183;47.808;9.476;2023-02-01T07:49:21;1.70;99.90
20045;DHT22;10183;47.808;9.476;2023-02-01T07:51:47;1.70;99.90
20045;DHT22;10183;47.808;9.476;2023-02-01T07:54:13;1.80;99.90
20045;DHT22;10183;47.808;9.476;2023-02-01T07:56:40;1.70;99.90
20045;DHT22;10183;47.808;9.476;2023-02-01T07:59:06;1.80;99.90
20045;DHT22;10183;47.808;9.476;2023-02-01T08:01:33;1.80;99.90
20045;DHT22;10183;47.808;9.476;2023-02-01T08:04:01;1.80;99.90
20045;DHT22;10183;47.808;9.476;2023-02-01T08:06:30;1.80;99.90
20045;DHT22;10183;47.808;9.476;2023-02-01T08:08:57;1.80;99.90
20045;DHT22;10183;47.808;9.476;2023-02-01T08:11:24;1.80;99.90
20045;DHT22;10183;47.808;9.476;2023-02-01T08:13:51;1.80;99.90
20045;DHT22;10183;47.808;9.476;2023-02-01T08:16:18;1.80;99.90
20045;DHT22;10183;47.808;9.476;2023-02-01T08:18:45;1.80;99.90
20045;DHT22;10183;47.808;9.476;2023-02-01T08:21:27;1.80;99.90
20045;DHT22;10183;47.808;9.476;2023-02-01T08:24:05;1.80;99.90
20045;DHT22;10183;47.808;9.476;2023-02-01T08:26:32;1.80;99.90
20045;DHT22;10183;47.808;9.476;2023-02-01T08:29:00;1.80;99.90
20045;DHT22;10183;47.808;9.476;2023-02-01T08:31:28;1.80;99.90
20045;DHT22;10183;47.808;9.476;2023-02-01T08:33:57;1.80;99.90
20045;DHT22;10183;47.808;9.476;2023-02-01T08:36:25;1.80;99.90
20045;DHT22;10183;47.808;9.476;2023-02-01T08:38:53;1.80;99.90
20045;DHT22;10183;47.808;9.476;2023-02-01T08:41:21;1.70;99.90
20045;DHT22;10183;47.808;9.476;2023-02-01T08:43:48;1.80;99.90
20045;DHT22;10183;47.808;9.476;2023-02-01T08:46:15;1.80;99.90
20045;DHT22;10183;47.808;9.476;2023-02-01T08:48:41;1.80;99.90
20045;DHT22;10183;47.808;9.476;2023-02-01T08:51:10;1.80;99.90
20045;DHT22;10183;47.808;9.476;2023-02-01T08:53:37;1.80;99.90
20045;DHT22;10183;47.808;9.476;2023-02-01T08:56:04;1.80;99.90
20045;DHT22;10183;47.808;9.476;2023-02-01T08:58:30;1.80;99.90
20045;DHT22;10183;47.808;9.476;2023-02-01T09:00:56;1.80;99.90
20045;DHT22;10183;47.808;9.476;2023-02-01T09:03:22;1.80;99.90
20045;DHT22;10183;47.808;9.476;2023-02-01T09:05:48;1.80;99.90
20045;DHT22;10183;47.808;9.476;2023-02-01T09:08:15;1.80;99.90
20045;DHT22;10183;47.808;9.476;2023-02-01T09:10:42;1.80;99.90
20045;DHT22;10183;47.808;9.476;2023-02-01T09:13:08;1.80;99.90
20045;DHT22;10183;47.808;9.476;2023-02-01T09:15:35;1.80;99.90
20045;DHT22;10183;47.808;9.476;2023-02-01T09:18:01;1.90;99.90
20045;DHT22;10183;47.808;9.476;2023-02-01T09:20:27;1.80;99.90
20045;DHT22;10183;47.808;9.476;2023-02-01T09:22:55;1.90;99.90
20045;DHT22;10183;47.808;9.476;2023-02-01T09:25:21;1.90;99.90
20045;DHT22;10183;47.808;9.476;2023-02-01T09:27:47;1.90;99.90
20045;DHT22;10183;47.808;9.476;2023-02-01T09:30:13;1.90;99.90
20045;DHT22;10183;47.808;9.476;2023-02-01T09:32:40;1.90;99.90
20045;DHT22;10183;47.808;9.476;2023-02-01T09:35:06;1.90;99.90
20045;DHT22;10183;47.808;9.476;2023-02-01T09:37:32;1.90;99.90
20045;DHT22;10183;47.808;9.476;2023-02-01T09:39:58;1.90;99.90
20045;DHT22;10183;47.808;9.476;2023-02-01T09:45:24;1.90;99.90
20045;DHT22;10183;47.808;9.476;2023-02-01T09:47:57;1.90;99.90
20045;DHT22;10183;47.808;9.476;2023-02-01T09:50:36;2.00;99.90
20045;DHT22;10183;47.808;9.476;2023-02-01T09:55:40;2.10;99.90
20045;DHT22;10183;47.808;9.476;2023-02-01T09:58:20;2.10;99.90
20045;DHT22;10183;47.808;9.476;2023-02-01T10:00:53;2.10;99.90
20045;DHT22;10183;47.808;9.476;2023-02-01T10:03:19;2.10;99.90
20045;DHT22;10183;47.808;9.476;2023-02-01T10:11:22;2.20;99.90
20045;DHT22;10183;47.808;9.476;2023-02-01T10:22:39;2.30;99.90
20045;DHT22;10183;47.808;9.476;2023-02-01T10:27:42;2.40;99.90
20045;DHT22;10183;47.808;9.476;2023-02-01T10:30:23;2.40;99.90
20045;DHT22;10183;47.808;9.476;2023-02-01T10:35:45;2.50;99.90
20045;DHT22;10183;47.808;9.476;2023-02-01T10:38:27;2.50;99.90
20045;DHT22;10183;47.808;9.476;2023-02-01T10:41:02;2.50;99.90
20045;DHT22;10183;47.808;9.476;2023-02-01T10:43:30;2.50;99.90
20045;DHT22;10183;47.808;9.476;2023-02-01T10:45:57;2.60;99.90
20045;DHT22;10183;47.808;9.476;2023-02-01T10:48:23;2.60;99.90
20045;DHT22;10183;47.808;9.476;2023-02-01T10:50:55;2.60;99.90
20045;DHT22;10183;47.808;9.476;2023-02-01T10:53:42;2.70;99.90
20045;DHT22;10183;47.808;9.476;2023-02-01T10:56:11;2.70;99.90
20045;DHT22;10183;47.808;9.476;2023-02-01T10:58:46;2.70;99.90
20045;DHT22;10183;47.808;9.476;2023-02-01T11:01:37;2.70;99.90
20045;DHT22;10183;47.808;9.476;2023-02-01T11:04:10;2.70;99.90
20045;DHT22;10183;47.808;9.476;2023-02-01T11:06:41;2.70;99.90
20045;DHT22;10183;47.808;9.476;2023-02-01T11:11:55;2.70;99.90
20045;DHT22;10183;47.808;9.476;2023-02-01T11:14:27;2.80;99.90
20045;DHT22;10183;47.808;9.476;2023-02-01T11:16:59;2.80;99.90
20045;DHT22;10183;47.808;9.476;2023-02-01T11:19:27;2.80;99.90
20045;DHT22;10183;47.808;9.476;2023-02-01T11:21:56;2.80;99.90
20045;DHT22;10183;47.808;9.476;2023-02-01T11:24:26;2.90;99.90
20045;DHT22;10183;47.808;9.476;2023-02-01T11:26:57;2.90;99.90
20045;DHT22;10183;47.808;9.476;2023-02-01T11:29:24;2.90;99.90
20045;DHT22;10183;47.808;9.476;2023-02-01T11:31:57;2.80;99.90
20045;DHT22;10183;47.808;9.476;2023-02-01T11:34:31;2.90;99.90
20045;DHT22;10183;47.808;9.476;2023-02-01T11:37:02;2.90;99.90
20045;DHT22;10183;47.808;9.476;2023-02-01T11:39:33;3.00;99.90
20045;DHT22;10183;47.808;9.476;2023-02-01T11:42:16;2.90;99.90
20045;DHT22;10183;47.808;9.476;2023-02-01T11:44:44;3.00;99.90
20045;DHT22;10183;47.808;9.476;2023-02-01T11:47:27;3.20;99.90
20045;DHT22;10183;47.808;9.476;2023-02-01T11:50:01;3.20;99.90
20045;DHT22;10183;47.808;9.476;2023-02-01T12:01:11;3.50;99.90
20045;DHT22;10183;47.808;9.476;2023-02-01T12:03:59;3.60;99.90
20045;DHT22;10183;47.808;9.476;2023-02-01T12:33:52;3.70;99.90
20045;DHT22;10183;47.808;9.476;2023-02-01T12:36:44;3.70;99.90
20045;DHT22;10183;47.808;9.476;2023-02-01T12:39:38;3.70;99.90
20045;DHT22;10183;47.808;9.476;2023-02-01T12:42:31;3.70;99.90
20045;DHT22;10183;47.808;9.476;2023-02-01T12:47:54;3.70;99.90
20045;DHT22;10183;47.808;9.476;2023-02-01T12:50:26;3.70;99.90
20045;DHT22;10183;47.808;9.476;2023-02-01T12:52:57;3.70;99.90
20045;DHT22;10183;47.808;9.476;2023-02-01T12:55:38;3.80;99.90
20045;DHT22;10183;47.808;9.476;2023-02-01T13:00:51;3.80;99.90
20045;DHT22;10183;47.808;9.476;2023-02-01T13:09:09;3.90;99.90
20045;DHT22;10183;47.808;9.476;2023-02-01T13:11:40;3.90;99.90
20045;DHT22;10183;47.808;9.476;2023-02-01T13:16:39;4.00;99.90
20045;DHT22;10183;47.808;9.476;2023-02-01T13:19:09;4.00;99.90
20045;DHT22;10183;47.808;9.476;2023-02-01T13:21:40;4.00;99.90
20045;DHT22;10183;47.808;9.476;2023-02-01T13:24:31;4.00;99.90
20045;DHT22;10183;47.808;9.476;2023-02-01T13:26:59;4.00;99.90
20045;DHT22;10183;47.808;9.476;2023-02-01T13:29:29;4.00;99.90
20045;DHT22;10183;47.808;9.476;2023-02-01T13:32:11;3.90;99.90
20045;DHT22;10183;47.808;9.476;2023-02-01T13:34:54;3.90;99.90
20045;DHT22;10183;47.808;9.476;2023-02-01T13:37:48;4.00;99.90
20045;DHT22;10183;47.808;9.476;2023-02-01T13:43:19;4.10;99.90
20045;DHT22;10183;47.808;9.476;2023-02-01T13:45:51;4.00;99.90
20045;DHT22;10183;47.808;9.476;2023-02-01T13:48:21;4.00;99.90
20045;DHT22;10183;47.808;9.476;2023-02-01T13:50:57;4.00;99.90
20045;DHT22;10183;47.808;9.476;2023-02-01T13:53:35;3.90;99.90
20045;DHT22;10183;47.808;9.476;2023-02-01T13:56:17;3.90;99.90
20045;DHT22;10183;47.808;9.476;2023-02-01T13:58:46;3.90;99.90
20045;DHT22;10183;47.808;9.476;2023-02-01T14:09:16;3.60;99.90
20045;DHT22;10183;47.808;9.476;2023-02-01T14:11:47;3.70;99.90
20045;DHT22;10183;47.808;9.476;2023-02-01T14:16:44;3.70;99.90
20045;DHT22;10183;47.808;9.476;2023-02-01T14:19:32;3.80;99.90
20045;DHT22;10183;47.808;9.476;2023-02-01T14:24:51;3.80;99.90
20045;DHT22;10183;47.808;9.476;2023-02-01T14:27:24;3.80;99.90
20045;DHT22;10183;47.808;9.476;2023-02-01T14:29:53;3.80;99.90
20045;DHT22;10183;47.808;9.476;2023-02-01T14:32:40;3.90;99.90
20045;DHT22;10183;47.808;9.476;2023-02-01T14:35:26;3.90;99.90
20045;DHT22;10183;47.808;9.476;2023-02-01T14:37:58;3.80;99.90
20045;DHT22;10183;47.808;9.476;2023-02-01T14:40:27;3.80;99.90
20045;DHT22;10183;47.808;9.476;2023-02-01T14:42:54;3.70;99.90
20045;DHT22;10183;47.808;9.476;2023-02-01T15:01:05;3.70;99.90
20045;DHT22;10183;47.808;9.476;2023-02-01T15:04:03;3.80;99.90
20045;DHT22;10183;47.808;9.476;2023-02-01T15:06:42;3.70;99.90
20045;DHT22;10183;47.808;9.476;2023-02-01T15:15:03;3.70;99.90
20045;DHT22;10183;47.808;9.476;2023-02-01T15:17:31;3.80;99.90
20045;DHT22;10183;47.808;9.476;2023-02-01T15:20:11;3.80;99.90
20045;DHT22;10183;47.808;9.476;2023-02-01T15:22:38;3.70;99.90
20045;DHT22;10183;47.808;9.476;2023-02-01T15:25:05;3.80;99.90
20045;DHT22;10183;47.808;9.476;2023-02-01T15:27:33;3.70;99.90
20045;DHT22;10183;47.808;9.476;2023-02-01T15:30:17;3.70;99.90
20045;DHT22;10183;47.808;9.476;2023-02-01T15:32:43;3.70;99.90
20045;DHT22;10183;47.808;9.476;2023-02-01T15:35:39;3.70;99.90
20045;DHT22;10183;47.808;9.476;2023-02-01T15:38:39;3.70;99.90
20045;DHT22;10183;47.808;9.476;2023-02-01T15:43:39;3.60;99.90
20045;DHT22;10183;47.808;9.476;2023-02-01T15:46:12;3.60;99.90
20045;DHT22;10183;47.808;9.476;2023-02-01T15:48:46;3.50;99.90
20045;DHT22;10183;47.808;9.476;2023-02-01T15:51:16;3.50;99.90
20045;DHT22;10183;47.808;9.476;2023-02-01T15:54:12;3.60;99.90
20045;DHT22;10183;47.808;9.476;2023-02-01T15:56:40;3.60;99.90
20045;DHT22;10183;47.808;9.476;2023-02-01T15:59:17;3.60;99.90
20045;DHT22;10183;47.808;9.476;2023-02-01T16:01:45;3.60;99.90
20045;DHT22;10183;47.808;9.476;2023-02-01T16:04:19;3.70;99.90
20045;DHT22;10183;47.808;9.476;2023-02-01T16:06:50;3.70;99.90
20045;DHT22;10183;47.808;9.476;2023-02-01T16:09:21;3.50;99.90
20045;DHT22;10183;47.808;9.476;2023-02-01T16:11:49;3.60;99.90
20045;DHT22;10183;47.808;9.476;2023-02-01T16:14:18;3.50;99.90
20045;DHT22;10183;47.808;9.476;2023-02-01T16:16:44;3.50;99.90
20045;DHT22;10183;47.808;9.476;2023-02-01T16:19:10;3.60;99.90
20045;DHT22;10183;47.808;9.476;2023-02-01T16:21:37;3.50;99.90
20045;DHT22;10183;47.808;9.476;2023-02-01T16:24:03;3.50;99.90
20045;DHT22;10183;47.808;9.476;2023-02-01T16:26:31;3.50;99.90
20045;DHT22;10183;47.808;9.476;2023-02-01T16:28:59;3.60;99.90
20045;DHT22;10183;47.808;9.476;2023-02-01T16:31:29;3.50;99.90
20045;DHT22;10183;47.808;9.476;2023-02-01T16:33:56;3.50;99.90
20045;DHT22;10183;47.808;9.476;2023-02-01T16:36:22;3.50;99.90
20045;DHT22;10183;47.808;9.476;2023-02-01T16:38:48;3.50;99.90
20045;DHT22;10183;47.808;9.476;2023-02-01T16:41:17;3.60;99.90
20045;DHT22;10183;47.808;9.476;2023-02-01T16:43:44;3.40;99.90
20045;DHT22;10183;47.808;9.476;2023-02-01T16:46:16;3.40;99.90
20045;DHT22;10183;47.808;9.476;2023-02-01T16:48:46;3.50;99.90
20045;DHT22;10183;47.808;9.476;2023-02-01T16:51:15;3.50;99.90
20045;DHT22;10183;47.808;9.476;2023-02-01T16:53:43;3.40;99.90
20045;DHT22;10183;47.808;9.476;2023-02-01T16:58:39;3.50;99.90
20045;DHT22;10183;47.808;9.476;2023-02-01T17:01:07;3.50;99.90
20045;DHT22;10183;47.808;9.476;2023-02-01T17:03:33;3.50;99.90
20045;DHT22;10183;47.808;9.476;2023-02-01T17:05:59;3.40;99.90
20045;DHT22;10183;47.808;9.476;2023-02-01T17:08:32;3.30;99.90
20045;DHT22;10183;47.808;9.476;2023-02-01T17:10:58;3.40;99.90
20045;DHT22;10183;47.808;9.476;2023-02-01T17:13:25;3.30;99.90
20045;DHT22;10183;47.808;9.476;2023-02-01T17:18:45;3.30;99.90
20045;DHT22;10183;47.808;9.476;2023-02-01T17:21:12;3.40;99.90
20045;DHT22;10183;47.808;9.476;2023-02-01T17:23:38;3.40;99.90
20045;DHT22;10183;47.808;9.476;2023-02-01T17:26:08;3.30;99.90
20045;DHT22;10183;47.808;9.476;2023-02-01T17:28:35;3.30;99.90
20045;DHT22;10183;47.808;9.476;2023-02-01T17:31:01;3.30;99.90
20045;DHT22;10183;47.808;9.476;2023-02-01T17:33:32;3.40;99.90
20045;DHT22;10183;47.808;9.476;2023-02-01T17:35:59;3.30;99.90
20045;DHT22;10183;47.808;9.476;2023-02-01T17:38:25;3.30;99.90
20045;DHT22;10183;47.808;9.476;2023-02-01T17:40:52;3.30;99.90
20045;DHT22;10183;47.808;9.476;2023-02-01T17:43:23;3.30;99.90
20045;DHT22;10183;47.808;9.476;2023-02-01T17:45:56;3.30;99.90
20045;DHT22;10183;47.808;9.476;2023-02-01T17:48:23;3.40;99.90
20045;DHT22;10183;47.808;9.476;2023-02-01T17:50:51;3.40;99.90
20045;DHT22;10183;47.808;9.476;2023-02-01T17:53:20;3.40;99.90
20045;DHT22;10183;47.808;9.476;2023-02-01T17:55:49;3.30;99.90
20045;DHT22;10183;47.808;9.476;2023-02-01T17:58:16;3.40;99.90
20045;DHT22;10183;47.808;9.476;2023-02-01T18:00:44;3.40;99.90
20045;DHT22;10183;47.808;9.476;2023-02-01T18:05:46;3.40;99.90
20045;DHT22;10183;47.808;9.476;2023-02-01T18:08:16;3.40;99.90
20045;DHT22;10183;47.808;9.476;2023-02-01T18:10:43;3.50;99.90
20045;DHT22;10183;47.808;9.476;2023-02-01T18:13:10;3.40;99.90
20045;DHT22;10183;47.808;9.476;2023-02-01T18:15:37;3.30;99.90
20045;DHT22;10183;47.808;9.476;2023-02-01T18:18:05;3.40;99.90
20045;DHT22;10183;47.808;9.476;2023-02-01T18:20:31;3.30;99.90
20045;DHT22;10183;47.808;9.476;2023-02-01T18:22:57;3.30;99.90
20045;DHT22;10183;47.808;9.476;2023-02-01T18:25:27;3.30;99.90
20045;DHT22;10183;47.808;9.476;2023-02-01T18:27:55;3.40;99.90
20045;DHT22;10183;47.808;9.476;2023-02-01T18:30:24;3.40;99.90
20045;DHT22;10183;47.808;9.476;2023-02-01T18:32:53;3.40;99.90
20045;DHT22;10183;47.808;9.476;2023-02-01T18:35:24;3.40;99.90
20045;DHT22;10183;47.808;9.476;2023-02-01T18:37:52;3.40;99.90
20045;DHT22;10183;47.808;9.476;2023-02-01T18:40:22;3.40;99.90
20045;DHT22;10183;47.808;9.476;2023-02-01T18:42:48;3.30;99.90
20045;DHT22;10183;47.808;9.476;2023-02-01T18:45:37;3.40;99.90
20045;DHT22;10183;47.808;9.476;2023-02-01T18:48:06;3.40;99.90